createdAt,value
2022-08-17T00:01:09.913Z,19.58
2022-08-17T00:03:51.943Z,19.59
2022-08-17T00:06:29.358Z,19.77
2022-08-17T00:09:00.868Z,19.67
2022-08-17T00:12:40.551Z,19.40
2022-08-17T00:14:37.779Z,19.40
2022-08-17T00:17:23.350Z,19.48
2022-08-17T00:19:57.572Z,19.63
2022-08-17T00:22:46.763Z,19.81
2022-08-17T00:25:17.355Z,19.72
2022-08-17T00:27:49.579Z,19.61
2022-08-17T00:30:16.664Z,19.66
2022-08-17T00:33:12.633Z,19.74
2022-08-17T00:35:42.736Z,19.83
2022-08-17T00:38:12.732Z,19.76
2022-08-17T00:40:49.432Z,19.78
2022-08-17T00:43:21.100Z,19.76
2022-08-17T00:45:50.234Z,19.77
2022-08-17T00:48:28.957Z,19.77
2022-08-17T00:51:23.658Z,19.74
2022-08-17T00:53:56.772Z,19.68
2022-08-17T00:56:34.771Z,19.66
2022-08-17T00:59:04.655Z,19.70
2022-08-17T01:01:34.856Z,19.64
2022-08-17T01:04:09.182Z,19.64
2022-08-17T01:06:36.606Z,19.64
2022-08-17T01:09:07.184Z,19.56
2022-08-17T01:11:53.803Z,19.52
2022-08-17T01:14:26.828Z,19.44
2022-08-17T01:17:01.986Z,19.50
2022-08-17T01:19:32.953Z,19.42
2022-08-17T01:22:23.123Z,19.29
2022-08-17T01:25:03.040Z,19.16
2022-08-17T01:27:38.679Z,19.05
2022-08-17T01:30:56.685Z,19.07
2022-08-17T01:32:58.509Z,19.03
2022-08-17T01:35:25.679Z,19.02
2022-08-17T01:37:53.310Z,19.05
2022-08-17T01:40:50.485Z,19.04
2022-08-17T01:43:33.315Z,18.94
2022-08-17T01:46:04.490Z,19.05
2022-08-17T01:48:34.764Z,19.02
2022-08-17T01:51:07.436Z,19.00
2022-08-17T01:53:42.824Z,18.94
2022-08-17T01:56:22.175Z,18.95
2022-08-17T01:59:01.446Z,18.76
2022-08-17T02:01:30.774Z,18.82
2022-08-17T02:04:03.141Z,18.79
2022-08-17T02:06:45.002Z,18.81
2022-08-17T02:09:16.898Z,18.79
2022-08-17T02:11:58.075Z,18.67
2022-08-17T02:14:27.282Z,18.48
2022-08-17T02:16:56.582Z,18.29
2022-08-17T02:19:25.695Z,18.10
2022-08-17T02:21:54.986Z,18.08
2022-08-17T02:25:01.115Z,17.99
2022-08-17T02:27:53.747Z,18.00
2022-08-17T02:30:59.779Z,18.02
2022-08-17T02:33:25.333Z,17.92
2022-08-17T02:36:13.338Z,17.92
2022-08-17T02:38:48.408Z,17.98
2022-08-17T02:41:23.726Z,17.99
2022-08-17T02:43:51.546Z,17.90
2022-08-17T02:46:21.677Z,17.98
2022-08-17T02:48:52.016Z,17.83
2022-08-17T02:51:44.298Z,17.80
2022-08-17T02:54:39.672Z,17.88
2022-08-17T02:56:58.331Z,17.92
2022-08-17T02:59:31.817Z,17.95
2022-08-17T03:01:59.982Z,18.04
2022-08-17T03:04:35.545Z,18.28
2022-08-17T03:07:13.020Z,18.37
2022-08-17T03:09:40.180Z,18.28
2022-08-17T03:12:14.034Z,18.42
2022-08-17T03:14:42.272Z,18.48
2022-08-17T03:17:34.794Z,18.62
2022-08-17T03:20:03.626Z,18.50
2022-08-17T03:22:38.632Z,18.44
2022-08-17T03:25:31.346Z,18.40
2022-08-17T03:28:17.826Z,18.23
2022-08-17T03:30:45.038Z,18.11
2022-08-17T03:33:14.044Z,17.97
2022-08-17T03:35:54.041Z,18.17
2022-08-17T03:38:22.341Z,18.44
2022-08-17T03:40:59.709Z,18.53
2022-08-17T03:43:33.710Z,18.35
2022-08-17T03:46:46.716Z,18.28
2022-08-17T03:49:39.919Z,18.31
2022-08-17T03:52:26.673Z,18.29
2022-08-17T03:55:14.503Z,18.31
2022-08-17T03:57:43.549Z,18.33
2022-08-17T04:00:11.438Z,18.20
2022-08-17T04:02:39.958Z,18.24
2022-08-17T04:05:12.359Z,17.93
2022-08-17T04:07:40.473Z,17.68
2022-08-17T04:10:16.361Z,17.55
2022-08-17T04:12:58.868Z,17.52
2022-08-17T04:15:33.809Z,17.91
2022-08-17T04:18:01.977Z,17.97
2022-08-17T04:20:34.073Z,18.10
2022-08-17T04:23:10.869Z,18.14
2022-08-17T04:25:50.599Z,18.23
2022-08-17T04:28:20.829Z,18.25
2022-08-17T04:30:49.039Z,18.16
2022-08-17T04:33:24.365Z,18.31
2022-08-17T04:35:57.183Z,18.42
2022-08-17T04:38:27.499Z,18.35
2022-08-17T04:41:16.881Z,18.37
2022-08-17T04:43:48.046Z,18.34
2022-08-17T04:46:21.568Z,18.33
2022-08-17T04:48:51.829Z,18.36
2022-08-17T04:51:37.611Z,18.50
2022-08-17T04:54:15.893Z,18.58
2022-08-17T04:56:43.471Z,18.73
2022-08-17T04:59:20.491Z,18.85
2022-08-17T05:01:53.566Z,19.02
2022-08-17T05:04:33.990Z,19.24
2022-08-17T05:07:24.008Z,19.35
2022-08-17T05:09:52.632Z,19.45
2022-08-17T05:12:25.635Z,19.51
2022-08-17T05:14:59.687Z,19.64
2022-08-17T05:17:37.205Z,19.75
2022-08-17T05:20:11.088Z,19.90
2022-08-17T05:22:51.572Z,19.96
2022-08-17T05:25:27.955Z,20.12
2022-08-17T05:28:02.117Z,20.14
2022-08-17T05:30:29.513Z,20.36
2022-08-17T05:33:28.006Z,20.53
2022-08-17T05:36:08.974Z,20.59
2022-08-17T05:39:16.124Z,20.60
2022-08-17T05:41:48.616Z,20.71
2022-08-17T05:44:24.756Z,20.83
2022-08-17T05:46:54.560Z,20.92
2022-08-17T05:49:38.026Z,21.00
2022-08-17T05:52:26.614Z,21.12
2022-08-17T05:55:13.817Z,21.22
2022-08-17T05:57:53.210Z,21.30
2022-08-17T06:00:32.220Z,21.41
2022-08-17T06:03:05.678Z,21.66
2022-08-17T06:06:03.837Z,21.84
2022-08-17T06:08:41.324Z,21.80
2022-08-17T06:11:40.520Z,22.06
2022-08-17T06:14:30.414Z,22.12
2022-08-17T06:17:04.815Z,22.15
2022-08-17T06:19:42.696Z,22.26
2022-08-17T06:22:20.485Z,22.38
2022-08-17T06:25:12.843Z,22.55
2022-08-17T06:28:04.345Z,22.68
2022-08-17T06:30:59.845Z,22.75
2022-08-17T06:33:38.305Z,22.80
2022-08-17T06:36:09.832Z,22.89
2022-08-17T06:39:07.916Z,23.02
2022-08-17T06:42:02.004Z,23.10
2022-08-17T06:44:55.501Z,23.22
2022-08-17T06:47:57.208Z,23.50
2022-08-17T06:50:47.183Z,23.58
2022-08-17T06:53:31.972Z,23.76
2022-08-17T06:56:09.266Z,23.96
2022-08-17T06:58:40.210Z,24.08
2022-08-17T07:01:25.638Z,24.12
2022-08-17T07:04:26.443Z,24.11
2022-08-17T07:07:23.804Z,24.18
2022-08-17T07:09:57.075Z,24.41
2022-08-17T07:12:38.765Z,24.55
2022-08-17T07:15:16.824Z,24.69
2022-08-17T07:17:51.244Z,24.99
2022-08-17T07:20:22.810Z,25.14
2022-08-17T07:23:17.886Z,25.26
2022-08-17T07:25:46.996Z,25.56
2022-08-17T07:28:23.190Z,25.68
2022-08-17T07:30:55.405Z,25.72
2022-08-17T07:33:32.508Z,25.84
2022-08-17T07:36:29.562Z,26.05
2022-08-17T07:39:03.043Z,26.24
2022-08-17T07:41:53.168Z,26.46
2022-08-17T07:44:27.580Z,26.64
2022-08-17T07:47:16.824Z,26.63
2022-08-17T07:49:46.675Z,26.74
2022-08-17T07:52:50.398Z,26.91
2022-08-17T07:55:31.583Z,27.08
2022-08-17T07:58:03.751Z,27.24
2022-08-17T08:00:34.027Z,27.30
2022-08-17T08:03:26.077Z,27.56
2022-08-17T08:05:57.810Z,27.69
2022-08-17T08:08:28.760Z,27.79
2022-08-17T08:11:13.198Z,27.93
2022-08-17T08:13:45.553Z,28.01
2022-08-17T08:16:26.836Z,28.23
2022-08-17T08:19:00.368Z,28.29
2022-08-17T08:21:46.830Z,28.39
2022-08-17T08:24:43.152Z,28.51
2022-08-17T08:27:40.119Z,28.51
2022-08-17T08:30:12.487Z,28.58
2022-08-17T08:32:51.619Z,28.58
2022-08-17T08:35:27.187Z,28.81
2022-08-17T08:38:42.878Z,29.00
2022-08-17T08:41:47.401Z,29.29
2022-08-17T08:45:00.953Z,29.52
2022-08-17T08:47:35.504Z,29.65
2022-08-17T08:50:37.485Z,29.79
2022-08-17T08:53:30.374Z,30.01
2022-08-17T08:56:05.526Z,30.06
2022-08-17T08:58:57.454Z,30.27
2022-08-17T09:01:56.462Z,30.39
2022-08-17T09:05:12.794Z,30.51
2022-08-17T09:08:12.800Z,30.66
2022-08-17T09:10:52.814Z,30.82
2022-08-17T09:13:57.924Z,30.96
2022-08-17T09:16:39.498Z,30.90
2022-08-17T09:19:20.452Z,31.08
2022-08-17T09:21:58.823Z,31.25
2022-08-17T09:24:36.020Z,31.44
2022-08-17T09:27:09.513Z,31.55
2022-08-17T09:29:45.095Z,31.74
2022-08-17T09:32:56.911Z,31.93
2022-08-17T09:35:37.532Z,32.03
2022-08-17T09:38:32.672Z,32.00
2022-08-17T09:41:20.816Z,32.10
2022-08-17T09:44:02.953Z,32.44
2022-08-17T09:46:45.926Z,32.65
2022-08-17T09:49:37.899Z,32.86
2022-08-17T09:52:51.602Z,33.14
2022-08-17T09:55:18.852Z,33.28
2022-08-17T09:58:29.101Z,33.07
2022-08-17T10:01:17.459Z,33.39
2022-08-17T10:04:13.176Z,33.65
2022-08-17T10:07:17.925Z,33.98
2022-08-17T10:10:26.115Z,34.18
2022-08-17T10:13:24.300Z,34.30
2022-08-17T10:16:03.688Z,34.34
2022-08-17T10:18:53.263Z,34.60
2022-08-17T10:21:43.073Z,34.87
2022-08-17T10:24:36.801Z,34.89
2022-08-17T10:27:19.736Z,35.01
2022-08-17T10:30:21.282Z,35.37
2022-08-17T10:32:56.756Z,35.58
2022-08-17T10:35:57.083Z,35.70
2022-08-17T10:38:37.954Z,35.68
2022-08-17T10:41:42.681Z,35.98
2022-08-17T10:44:39.648Z,36.26
2022-08-17T10:47:13.145Z,36.64
2022-08-17T10:49:54.092Z,36.68
2022-08-17T10:52:24.850Z,36.81
2022-08-17T10:54:54.904Z,36.92
2022-08-17T10:57:41.331Z,37.09
2022-08-17T11:00:47.765Z,37.31
2022-08-17T11:03:37.846Z,37.64
2022-08-17T11:06:17.322Z,37.80
2022-08-17T11:09:09.535Z,38.24
2022-08-17T11:12:01.977Z,38.38
2022-08-17T11:14:48.120Z,38.75
2022-08-17T11:17:39.203Z,39.11
2022-08-17T11:20:32.598Z,39.33
2022-08-17T11:23:30.190Z,39.69
2022-08-17T11:26:08.522Z,39.71
2022-08-17T11:28:52.490Z,39.65
2022-08-17T11:31:39.004Z,39.81
2022-08-17T11:34:26.885Z,40.21
2022-08-17T11:37:24.956Z,40.54
2022-08-17T11:40:16.399Z,40.55
2022-08-17T11:42:48.907Z,39.20
2022-08-17T11:45:34.313Z,38.91
2022-08-17T11:48:54.767Z,39.35
2022-08-17T11:51:44.394Z,39.83
2022-08-17T11:54:33.410Z,39.94
2022-08-17T11:57:27.148Z,40.32
2022-08-17T12:00:01.110Z,40.11
2022-08-17T12:03:11.839Z,40.43
2022-08-17T12:06:21.565Z,40.47
2022-08-17T12:09:21.338Z,39.36
2022-08-17T12:12:14.302Z,39.98
2022-08-17T12:15:12.916Z,40.51
2022-08-17T12:17:51.158Z,40.59
2022-08-17T12:20:44.379Z,40.96
2022-08-17T12:23:47.817Z,41.40
2022-08-17T12:26:14.994Z,41.77
2022-08-17T12:28:47.067Z,41.95
2022-08-17T12:31:43.918Z,42.37
2022-08-17T12:34:22.282Z,42.89
2022-08-17T12:37:00.721Z,43.24
2022-08-17T12:39:29.952Z,43.08
2022-08-17T12:42:02.894Z,41.97
2022-08-17T12:44:36.824Z,42.11
2022-08-17T12:47:22.778Z,42.36
2022-08-17T12:49:54.922Z,42.55
2022-08-17T12:52:28.684Z,42.67
2022-08-17T12:55:23.612Z,42.60
2022-08-17T12:58:01.730Z,42.28
2022-08-17T13:00:41.549Z,42.12
2022-08-17T13:03:23.923Z,42.10
2022-08-17T13:06:12.583Z,42.39
2022-08-17T13:08:47.887Z,42.80
2022-08-17T13:11:16.830Z,43.02
2022-08-17T13:14:09.081Z,43.18
2022-08-17T13:16:38.237Z,43.37
2022-08-17T13:19:29.726Z,43.68
2022-08-17T13:22:12.814Z,43.64
2022-08-17T13:24:54.846Z,43.79
2022-08-17T13:27:26.583Z,43.45
2022-08-17T13:29:58.363Z,43.18
2022-08-17T13:32:33.448Z,43.22
2022-08-17T13:35:41.038Z,43.19
2022-08-17T13:38:15.091Z,43.39
2022-08-17T13:41:23.619Z,43.61
2022-08-17T13:43:51.935Z,43.82
2022-08-17T13:46:31.370Z,43.98
2022-08-17T13:49:06.572Z,44.21
2022-08-17T13:51:44.160Z,44.49
2022-08-17T13:54:32.837Z,44.38
2022-08-17T13:57:12.445Z,43.53
2022-08-17T14:00:10.080Z,42.80
2022-08-17T14:02:37.139Z,43.10
2022-08-17T14:05:06.697Z,43.40
2022-08-17T14:07:38.481Z,43.73
2022-08-17T14:10:15.711Z,44.00
2022-08-17T14:12:47.170Z,44.10
2022-08-17T14:15:24.902Z,44.05
2022-08-17T14:18:11.979Z,44.15
2022-08-17T14:20:42.392Z,44.12
2022-08-17T14:23:11.604Z,44.28
2022-08-17T14:25:38.679Z,44.25
2022-08-17T14:28:15.272Z,43.93
2022-08-17T14:30:58.794Z,42.93
2022-08-17T14:33:38.121Z,41.58
2022-08-17T14:36:08.483Z,41.88
2022-08-17T14:38:36.200Z,42.24
2022-08-17T14:41:09.058Z,42.49
2022-08-17T14:43:40.230Z,42.76
2022-08-17T14:46:42.182Z,43.15
2022-08-17T14:49:13.148Z,43.12
2022-08-17T14:51:44.026Z,43.30
2022-08-17T14:54:32.693Z,42.88
2022-08-17T14:57:11.577Z,42.83
2022-08-17T14:59:59.726Z,43.03
2022-08-17T15:02:29.631Z,42.95
2022-08-17T15:05:05.564Z,43.08
2022-08-17T15:07:32.762Z,43.03
2022-08-17T15:10:06.623Z,43.06
2022-08-17T15:12:35.927Z,43.21
2022-08-17T15:15:05.499Z,43.35
2022-08-17T15:17:44.880Z,43.16
2022-08-17T15:20:21.885Z,43.12
2022-08-17T15:22:50.227Z,43.01
2022-08-17T15:25:19.578Z,42.79
2022-08-17T15:27:49.204Z,42.74
2022-08-17T15:30:18.535Z,42.57
2022-08-17T15:32:54.470Z,42.49
2022-08-17T15:35:32.946Z,42.43
2022-08-17T15:38:11.153Z,42.51
2022-08-17T15:40:43.550Z,42.51
2022-08-17T15:43:28.827Z,42.48
2022-08-17T15:46:04.802Z,42.44
2022-08-17T15:48:44.027Z,42.32
2022-08-17T15:51:21.078Z,42.26
2022-08-17T15:53:51.421Z,42.11
2022-08-17T15:56:19.332Z,42.07
2022-08-17T15:58:48.739Z,42.04
2022-08-17T16:01:51.790Z,41.96
2022-08-17T16:04:30.249Z,41.97
2022-08-17T16:07:00.288Z,41.79
2022-08-17T16:09:36.755Z,41.49
2022-08-17T16:12:18.886Z,41.15
2022-08-17T16:14:47.916Z,40.78
2022-08-17T16:17:40.261Z,40.48
2022-08-17T16:20:19.894Z,39.91
2022-08-17T16:22:50.015Z,39.44
2022-08-17T16:25:21.122Z,38.94
2022-08-17T16:27:55.597Z,38.46
2022-08-17T16:30:28.981Z,38.03
2022-08-17T16:32:58.220Z,37.64
2022-08-17T16:35:27.499Z,37.28
2022-08-17T16:37:57.673Z,36.86
2022-08-17T16:40:39.395Z,36.54
2022-08-17T16:43:15.447Z,36.22
2022-08-17T16:45:52.320Z,35.86
2022-08-17T16:48:20.142Z,35.54
2022-08-17T16:51:03.207Z,35.27
2022-08-17T16:53:37.776Z,34.62
2022-08-17T16:56:05.280Z,34.47
2022-08-17T16:58:34.337Z,34.37
2022-08-17T17:01:01.725Z,34.33
2022-08-17T17:03:44.477Z,34.31
2022-08-17T17:07:01.390Z,34.32
2022-08-17T17:09:39.053Z,34.25
2022-08-17T17:12:18.154Z,34.12
2022-08-17T17:14:48.736Z,33.97
2022-08-17T17:17:46.826Z,33.85
2022-08-17T17:20:16.882Z,33.64
2022-08-17T17:22:55.039Z,33.39
2022-08-17T17:25:34.296Z,33.09
2022-08-17T17:28:02.820Z,32.89
2022-08-17T17:31:29.029Z,32.72
2022-08-17T17:34:00.983Z,32.46
2022-08-17T17:36:51.806Z,32.35
2022-08-17T17:39:31.151Z,32.11
2022-08-17T17:42:03.157Z,31.90
2022-08-17T17:44:47.323Z,31.73
2022-08-17T17:47:38.907Z,31.68
2022-08-17T17:50:09.455Z,31.56
2022-08-17T17:53:19.761Z,31.44
2022-08-17T17:56:21.051Z,31.33
2022-08-17T17:59:18.125Z,31.16
2022-08-17T18:01:56.950Z,31.01
2022-08-17T18:04:49.911Z,30.85
2022-08-17T18:07:43.171Z,30.67
2022-08-17T18:10:41.583Z,30.51
2022-08-17T18:13:17.847Z,30.38
2022-08-17T18:15:54.479Z,30.34
2022-08-17T18:18:44.366Z,30.21
2022-08-17T18:21:21.019Z,29.98
2022-08-17T18:23:59.489Z,29.81
2022-08-17T18:26:38.783Z,29.62
2022-08-17T18:29:30.388Z,29.40
2022-08-17T18:32:19.526Z,29.24
2022-08-17T18:35:00.569Z,29.17
2022-08-17T18:37:52.148Z,29.03
2022-08-17T18:40:35.716Z,28.86
2022-08-17T18:43:03.494Z,28.81
2022-08-17T18:46:17.360Z,28.64
2022-08-17T18:49:08.016Z,28.46
2022-08-17T18:51:43.353Z,28.37
2022-08-17T18:54:29.640Z,28.31
2022-08-17T18:57:00.041Z,28.17
2022-08-17T19:00:01.761Z,28.02
2022-08-17T19:02:46.131Z,27.84
2022-08-17T19:05:53.101Z,27.65
2022-08-17T19:08:29.202Z,27.53
2022-08-17T19:11:01.568Z,27.41
2022-08-17T19:13:36.699Z,27.32
2022-08-17T19:16:15.832Z,27.17
2022-08-17T19:18:52.808Z,27.08
2022-08-17T19:21:52.808Z,26.94
2022-08-17T19:24:26.667Z,26.88
2022-08-17T19:27:21.155Z,26.75
2022-08-17T19:30:07.747Z,26.75
2022-08-17T19:32:36.157Z,26.69
2022-08-17T19:35:17.491Z,26.39
2022-08-17T19:38:12.949Z,26.39
2022-08-17T19:41:08.341Z,26.30
2022-08-17T19:43:56.510Z,26.27
2022-08-17T19:46:48.653Z,26.17
2022-08-17T19:49:47.165Z,26.12
2022-08-17T19:52:37.764Z,26.02
2022-08-17T19:55:22.481Z,26.02
2022-08-17T19:58:04.947Z,26.00
2022-08-17T20:04:05.960Z,25.83
2022-08-17T20:06:42.507Z,25.74
2022-08-17T20:09:35.599Z,25.45
2022-08-17T20:12:19.981Z,25.37
2022-08-17T20:14:59.529Z,25.32
2022-08-17T20:17:34.915Z,25.23
2022-08-17T20:20:19.764Z,25.23
2022-08-17T20:22:57.842Z,25.20
2022-08-17T20:26:20.900Z,25.13
2022-08-17T20:29:17.183Z,25.02
2022-08-17T20:32:05.862Z,24.97
2022-08-17T20:34:38.161Z,24.93
2022-08-17T20:37:10.280Z,24.91
2022-08-17T20:39:46.308Z,24.83
2022-08-17T20:42:23.362Z,24.73
2022-08-17T20:44:59.620Z,24.66
2022-08-17T20:48:22.149Z,24.64
2022-08-17T20:51:01.256Z,24.60
2022-08-17T20:54:00.987Z,24.62
2022-08-17T20:56:49.325Z,24.67
2022-08-17T20:59:42.689Z,24.72
2022-08-17T21:02:20.446Z,24.68
2022-08-17T21:04:50.260Z,24.58
2022-08-17T21:07:43.412Z,24.57
2022-08-17T21:10:18.495Z,24.52
2022-08-17T21:13:15.648Z,24.53
2022-08-17T21:16:05.580Z,24.48
2022-08-17T21:18:52.999Z,24.43
2022-08-17T21:21:48.106Z,24.40
2022-08-17T21:24:34.843Z,24.32
2022-08-17T21:27:26.308Z,24.24
2022-08-17T21:29:59.544Z,24.24
2022-08-17T21:32:32.280Z,24.20
2022-08-17T21:35:07.008Z,24.16
2022-08-17T21:37:46.823Z,23.98
2022-08-17T21:40:37.082Z,23.34
2022-08-17T21:43:33.715Z,23.09
2022-08-17T21:46:22.247Z,22.68
2022-08-17T21:49:02.917Z,22.84
2022-08-17T21:51:50.292Z,22.70
2022-08-17T21:54:56.926Z,22.61
2022-08-17T21:57:53.237Z,22.47
2022-08-17T22:00:32.250Z,22.43
2022-08-17T22:03:03.445Z,22.50
2022-08-17T22:05:50.729Z,22.53
2022-08-17T22:08:25.188Z,22.52
2022-08-17T22:11:01.750Z,22.52
2022-08-17T22:13:31.055Z,22.56
2022-08-17T22:16:28.746Z,22.53
2022-08-17T22:18:59.393Z,22.51
2022-08-17T22:21:44.853Z,22.08
2022-08-17T22:25:08.664Z,22.34
2022-08-17T22:28:01.359Z,21.67
2022-08-17T22:30:34.965Z,21.83
2022-08-17T22:33:46.657Z,21.91
2022-08-17T22:36:42.501Z,21.72
2022-08-17T22:39:12.563Z,21.62
2022-08-17T22:42:06.605Z,21.69
2022-08-17T22:44:38.011Z,21.53
2022-08-17T22:47:41.297Z,21.73
2022-08-17T22:50:33.536Z,21.67
2022-08-17T22:53:23.079Z,21.57
2022-08-17T22:56:26.192Z,21.39
2022-08-17T22:59:15.291Z,21.57
2022-08-17T23:02:32.102Z,21.61
2022-08-17T23:05:13.433Z,21.64
2022-08-17T23:07:42.433Z,21.61
2022-08-17T23:10:12.473Z,21.49
2022-08-17T23:12:44.876Z,21.58
2022-08-17T23:15:16.196Z,21.61
2022-08-17T23:17:48.114Z,21.69
2022-08-17T23:20:18.474Z,21.76
2022-08-17T23:22:52.372Z,21.81
2022-08-17T23:25:34.918Z,21.88
2022-08-17T23:28:06.994Z,21.85
2022-08-17T23:30:42.832Z,21.84
2022-08-17T23:33:25.878Z,21.87
2022-08-17T23:36:00.837Z,21.84
2022-08-17T23:38:36.692Z,21.81
2022-08-17T23:41:17.863Z,21.72
2022-08-17T23:43:55.413Z,21.80
2022-08-17T23:46:24.769Z,21.85
2022-08-17T23:49:03.557Z,21.81
2022-08-17T23:51:42.775Z,21.83
2022-08-17T23:54:30.077Z,21.79
2022-08-17T23:56:57.183Z,21.77
2022-08-17T23:59:24.481Z,21.74
